Time;durP1;ratioP1;P1;durP2;ratioP2;P2;SDS_P1;SDS_P2;PMS_P1;PMS_P2;Temp;Humidity;BMP_temperature;BMP_pressure;BME280_temperature;BME280_humidity;BME280_pressure;Samples;Min_cycle;Max_cycle;Signal;HPM_P1;HPM_P2
2022/01/27 00:04:09;;;;;;;87.95;62.15;;;22.10;95.40;;;;;;4215102;28;20418;-63
2022/01/27 00:06:16;;;;;;;88.82;61.92;;;22.10;95.30;;;;;;4212474;28;20540;-63
2022/01/27 00:08:31;;;;;;;82.53;61.90;;;22.00;95.60;;;;;;4194425;28;20422;-63
2022/01/27 00:12:55;;;;;;;83.43;62.13;;;22.10;95.60;;;;;;4216788;28;20048;-63
2022/01/27 00:15:10;;;;;;;89.68;63.03;;;22.10;95.60;;;;;;4213703;28;20043;-62
2022/01/27 00:17:15;;;;;;;91.90;66.38;;;22.20;95.70;;;;;;4196375;28;20054;-63
2022/01/27 00:19:19;;;;;;;93.68;68.07;;;22.20;95.80;;;;;;4214137;28;20048;-63
2022/01/27 00:21:26;;;;;;;96.57;68.18;;;22.30;95.80;;;;;;4213128;28;20434;-63
2022/01/27 00:23:31;;;;;;;95.53;69.05;;;22.30;95.70;;;;;;4191892;28;20051;-61
2022/01/27 00:25:35;;;;;;;108.75;75.30;;;22.40;95.80;;;;;;4213419;28;20047;-64
2022/01/27 00:27:40;;;;;;;117.82;81.07;;;22.30;95.60;;;;;;4213841;28;20036;-62
2022/01/27 00:29:45;;;;;;;115.75;77.97;;;22.30;95.80;;;;;;4196669;28;20048;-61
2022/01/27 00:31:50;;;;;;;125.45;83.07;;;22.40;95.70;;;;;;4212612;28;20044;-62
2022/01/27 00:33:55;;;;;;;119.32;82.00;;;22.40;95.70;;;;;;4213244;28;20028;-61
2022/01/27 00:35:59;;;;;;;126.30;79.60;;;22.40;96.00;;;;;;4213786;28;20067;-61
2022/01/27 00:38:04;;;;;;;116.68;77.78;;;22.40;96.20;;;;;;4215399;28;20135;-61
2022/01/27 00:40:11;;;;;;;104.93;72.53;;;22.40;95.90;;;;;;4196691;28;20422;-61
2022/01/27 00:42:16;;;;;;;95.97;70.38;;;22.50;95.70;;;;;;4212617;28;20048;-62
2022/01/27 00:44:20;;;;;;;92.80;66.03;;;22.50;95.40;;;;;;4213175;28;20725;-62
2022/01/27 00:46:25;;;;;;;89.13;66.43;;;22.40;95.40;;;;;;4212241;28;20410;-62
2022/01/27 00:48:29;;;;;;;89.43;66.93;;;22.50;95.30;;;;;;4213975;28;20551;-62
2022/01/27 00:50:36;;;;;;;97.85;72.18;;;22.50;95.30;;;;;;4195897;28;20068;-62
2022/01/27 00:52:45;;;;;;;100.07;72.60;;;22.40;95.20;;;;;;4212838;28;20085;-62
2022/01/27 00:54:52;;;;;;;100.35;73.65;;;22.40;95.30;;;;;;4213829;28;20298;-62
2022/01/27 00:57:23;;;;;;;99.13;76.50;;;22.50;95.20;;;;;;4212898;28;20032;-61
2022/01/27 00:59:33;;;;;;;103.75;76.75;;;22.50;95.10;;;;;;4212683;28;20070;-61
2022/01/27 01:01:42;;;;;;;98.97;73.63;;;22.50;95.30;;;;;;4214653;28;20086;-61
2022/01/27 01:03:48;;;;;;;100.03;74.85;;;22.60;95.40;;;;;;4195623;28;20049;-62
2022/01/27 01:06:11;;;;;;;98.38;74.18;;;22.60;95.10;;;;;;4196489;28;20050;-62
2022/01/27 01:15:19;;;;;;;108.00;76.15;;;22.80;94.70;;;;;;4212723;28;20043;-62
2022/01/27 01:19:42;;;;;;;105.13;76.70;;;23.00;94.50;;;;;;4213378;28;20674;-62
2022/01/27 01:31:11;;;;;;;93.53;64.45;;;23.30;94.50;;;;;;4196651;28;20032;-62
2022/01/27 01:33:21;;;;;;;81.78;63.40;;;23.40;93.50;;;;;;4213203;28;20032;-62
2022/01/27 01:35:39;;;;;;;92.75;68.45;;;23.40;94.20;;;;;;4212759;28;20052;-61
2022/01/27 01:37:44;;;;;;;88.80;66.18;;;23.50;94.20;;;;;;4213483;28;20070;-60
2022/01/27 01:39:48;;;;;;;84.10;63.45;;;23.60;93.90;;;;;;4213724;28;20040;-59
2022/01/27 01:41:53;;;;;;;78.40;58.65;;;23.60;93.80;;;;;;4195144;28;20075;-62
2022/01/27 01:43:58;;;;;;;84.80;58.83;;;23.70;94.00;;;;;;4212001;28;20756;-62
2022/01/27 01:46:03;;;;;;;80.82;60.20;;;23.80;93.80;;;;;;4212138;28;20132;-64
2022/01/27 01:48:07;;;;;;;82.20;57.20;;;23.80;93.70;;;;;;4213542;28;20043;-63
2022/01/27 01:50:12;;;;;;;75.88;57.55;;;23.80;93.60;;;;;;4194848;28;20056;-64
2022/01/27 01:52:16;;;;;;;73.72;52.47;;;23.90;93.40;;;;;;4212673;28;20055;-62
2022/01/27 01:54:21;;;;;;;68.30;45.63;;;24.00;93.40;;;;;;4212429;28;20068;-64
2022/01/27 01:56:25;;;;;;;77.07;49.95;;;24.00;93.10;;;;;;4199752;28;20096;-63
2022/01/27 01:58:30;;;;;;;70.03;46.22;;;24.10;93.10;;;;;;4209538;28;20091;-62
2022/01/27 02:00:34;;;;;;;56.75;40.45;;;24.10;93.10;;;;;;4211496;28;20052;-62
2022/01/27 02:02:40;;;;;;;51.67;39.40;;;24.20;93.10;;;;;;4197224;28;20140;-64
2022/01/27 02:04:45;;;;;;;43.33;34.15;;;24.20;93.00;;;;;;4213097;28;20289;-64
2022/01/27 02:07:00;;;;;;;60.13;31.90;;;24.20;92.90;;;;;;4201600;28;20062;-63
2022/01/27 02:09:14;;;;;;;42.25;25.17;;;24.30;92.60;;;;;;4214761;28;20758;-64
2022/01/27 02:18:12;;;;;;;45.92;27.13;;;24.40;92.50;;;;;;4211483;28;20068;-64
2022/01/27 02:20:17;;;;;;;50.03;28.27;;;24.50;92.80;;;;;;4213620;28;20052;-66
2022/01/27 02:22:21;;;;;;;40.75;25.90;;;24.50;92.70;;;;;;4212213;28;20439;-65
2022/01/27 02:24:28;;;;;;;36.40;23.88;;;24.60;92.70;;;;;;4198502;28;20545;-63
2022/01/27 02:26:32;;;;;;;37.50;24.45;;;24.70;91.80;;;;;;4212071;28;20048;-64
2022/01/27 02:28:38;;;;;;;51.85;26.52;;;24.70;91.80;;;;;;4214417;28;20062;-64
2022/01/27 02:30:42;;;;;;;174.10;32.33;;;24.80;92.00;;;;;;4211774;28;20035;-64
2022/01/27 02:32:47;;;;;;;108.75;27.95;;;24.80;91.90;;;;;;4198336;28;20039;-65
2022/01/27 02:34:52;;;;;;;53.10;25.67;;;24.80;91.90;;;;;;4195113;28;20534;-65
2022/01/27 02:36:56;;;;;;;53.65;26.13;;;24.90;92.00;;;;;;4210604;28;20051;-63
2022/01/27 02:39:02;;;;;;;67.10;24.77;;;24.90;92.00;;;;;;4194431;28;20048;-63
2022/01/27 02:41:07;;;;;;;113.55;29.50;;;24.90;91.90;;;;;;4211424;28;20052;-63
2022/01/27 02:43:11;;;;;;;67.75;26.65;;;25.00;91.90;;;;;;4194376;28;20040;-61
2022/01/27 02:45:31;;;;;;;51.10;25.88;;;25.00;91.70;;;;;;4213866;28;20044;-64
2022/01/27 02:47:35;;;;;;;231.15;37.47;;;25.10;91.60;;;;;;4196600;28;20045;-63
2022/01/27 02:49:41;;;;;;;57.13;26.05;;;25.10;91.80;;;;;;4214530;28;20044;-64
2022/01/27 02:51:45;;;;;;;40.72;23.50;;;25.20;91.40;;;;;;4210412;28;20039;-64
2022/01/27 02:53:49;;;;;;;33.22;22.33;;;25.20;91.00;;;;;;4212086;28;20071;-66
2022/01/27 02:55:54;;;;;;;35.78;23.33;;;25.30;91.00;;;;;;4212769;28;20136;-65
2022/01/27 02:57:59;;;;;;;31.70;23.75;;;25.30;91.30;;;;;;4194745;28;20045;-65
2022/01/27 03:00:04;;;;;;;77.35;26.85;;;25.30;90.90;;;;;;4214908;28;20044;-64
2022/01/27 03:02:09;;;;;;;232.30;35.78;;;25.40;90.60;;;;;;4210063;28;20155;-64
2022/01/27 03:04:14;;;;;;;309.98;39.72;;;25.40;91.10;;;;;;4215921;28;20056;-64
2022/01/27 03:06:19;;;;;;;164.27;31.60;;;25.50;90.80;;;;;;4214117;28;20044;-62
2022/01/27 03:08:24;;;;;;;69.10;25.17;;;25.50;90.80;;;;;;4216853;28;20047;-64
2022/01/27 03:10:33;;;;;;;52.53;25.15;;;25.60;91.10;;;;;;4215376;28;20036;-63
2022/01/27 03:12:38;;;;;;;41.72;23.20;;;25.60;90.80;;;;;;4214466;28;20066;-64
2022/01/27 03:14:44;;;;;;;32.67;23.95;;;25.70;90.30;;;;;;4210304;28;20063;-63
2022/01/27 03:16:53;;;;;;;31.30;23.50;;;25.70;90.40;;;;;;4212747;28;20067;-62
2022/01/27 03:18:58;;;;;;;316.10;41.55;;;25.80;90.50;;;;;;4212913;28;20052;-63
2022/01/27 03:21:04;;;;;;;63.75;24.38;;;25.80;90.60;;;;;;4213866;28;20051;-63
2022/01/27 03:23:10;;;;;;;89.82;26.80;;;25.80;90.20;;;;;;4212243;28;20681;-62
2022/01/27 03:25:14;;;;;;;43.63;23.85;;;25.80;90.50;;;;;;4214819;28;20085;-62
2022/01/27 03:27:23;;;;;;;43.85;23.40;;;25.80;90.50;;;;;;4214943;28;20040;-62
2022/01/27 03:29:28;;;;;;;53.10;22.92;;;25.90;90.80;;;;;;4213293;28;20181;-64
2022/01/27 03:31:32;;;;;;;51.72;23.42;;;26.00;90.50;;;;;;4212404;28;20040;-62
2022/01/27 03:33:39;;;;;;;66.55;23.45;;;26.00;90.70;;;;;;4212772;28;20044;-63
2022/01/27 03:35:43;;;;;;;42.13;21.60;;;26.00;90.10;;;;;;4212128;28;20040;-64
2022/01/27 03:37:47;;;;;;;41.60;20.75;;;26.10;89.90;;;;;;4212641;28;20047;-64
2022/01/27 03:39:52;;;;;;;32.10;20.08;;;26.10;88.80;;;;;;4215025;28;20686;-63
2022/01/27 03:41:57;;;;;;;26.45;20.27;;;26.20;89.20;;;;;;4212936;28;20052;-64
2022/01/27 03:44:02;;;;;;;27.38;19.38;;;26.20;89.50;;;;;;4213054;28;20040;-62
2022/01/27 03:46:06;;;;;;;31.20;18.83;;;26.30;89.30;;;;;;4212024;28;20101;-63
2022/01/27 03:48:11;;;;;;;36.38;20.23;;;26.40;89.50;;;;;;4215871;28;20578;-63
2022/01/27 03:50:15;;;;;;;23.55;17.77;;;26.40;89.50;;;;;;4212155;28;20040;-64
2022/01/27 03:52:20;;;;;;;23.05;18.00;;;26.40;88.80;;;;;;4214188;28;20054;-66
2022/01/27 03:54:25;;;;;;;23.77;18.02;;;26.50;89.30;;;;;;4213480;28;20698;-61
2022/01/27 03:56:29;;;;;;;25.95;18.35;;;26.60;88.40;;;;;;4213107;28;20506;-63
2022/01/27 03:58:33;;;;;;;23.60;17.92;;;26.70;87.30;;;;;;4212365;28;20793;-64
2022/01/27 04:00:38;;;;;;;26.13;19.27;;;26.70;86.80;;;;;;4211462;28;20409;-65
2022/01/27 04:02:59;;;;;;;23.55;17.98;;;26.80;86.20;;;;;;4212241;28;20089;-63
2022/01/27 04:05:05;;;;;;;26.50;17.98;;;26.80;86.60;;;;;;4211053;28;20509;-64
2022/01/27 04:07:10;;;;;;;26.00;17.40;;;26.80;86.90;;;;;;4214946;28;20055;-64
2022/01/27 04:09:14;;;;;;;25.15;16.63;;;26.90;86.10;;;;;;4211849;28;20583;-64
2022/01/27 04:11:18;;;;;;;25.75;15.90;;;26.90;85.10;;;;;;4211971;28;20428;-63
2022/01/27 04:13:22;;;;;;;22.23;15.55;;;26.90;84.10;;;;;;4211319;28;20051;-64
2022/01/27 04:15:27;;;;;;;19.38;15.15;;;26.90;84.90;;;;;;4213628;28;20083;-64
2022/01/27 04:17:31;;;;;;;22.88;15.93;;;27.00;85.20;;;;;;4194967;28;20059;-64
2022/01/27 04:19:37;;;;;;;21.98;15.85;;;27.00;85.20;;;;;;4211552;28;20047;-63
2022/01/27 04:21:42;;;;;;;22.83;15.75;;;27.10;85.40;;;;;;4209810;28;20044;-63
2022/01/27 04:23:46;;;;;;;24.95;16.00;;;27.30;85.20;;;;;;4211520;28;20089;-63
2022/01/27 04:25:53;;;;;;;23.83;15.38;;;27.20;84.90;;;;;;4194078;28;20049;-63
2022/01/27 04:27:59;;;;;;;19.77;15.00;;;27.20;85.60;;;;;;4210915;28;20048;-63
2022/01/27 04:30:10;;;;;;;21.98;14.30;;;27.30;84.90;;;;;;4193249;28;20033;-63
2022/01/27 04:32:21;;;;;;;22.23;14.77;;;27.30;83.60;;;;;;4209870;28;20182;-63
2022/01/27 04:34:25;;;;;;;19.63;13.95;;;27.40;83.80;;;;;;4207484;28;20048;-63
2022/01/27 04:36:32;;;;;;;19.20;14.32;;;27.40;83.40;;;;;;4211992;28;20113;-63
2022/01/27 04:38:51;;;;;;;24.42;15.25;;;27.50;83.30;;;;;;4212098;28;20220;-63
2022/01/27 04:41:10;;;;;;;18.90;14.18;;;27.60;83.40;;;;;;4211389;28;20048;-63
2022/01/27 04:43:24;;;;;;;21.90;14.05;;;27.60;82.90;;;;;;4212881;28;20071;-63
2022/01/27 04:45:37;;;;;;;20.02;14.60;;;27.80;83.00;;;;;;4211377;28;20792;-65
2022/01/27 04:47:46;;;;;;;17.85;13.55;;;27.80;83.40;;;;;;4211918;28;20043;-66
2022/01/27 04:49:50;;;;;;;18.35;12.57;;;28.00;82.00;;;;;;4213054;28;20046;-64
2022/01/27 04:51:55;;;;;;;17.08;12.63;;;28.00;81.80;;;;;;4210868;28;20035;-64
2022/01/27 04:54:06;;;;;;;16.38;12.90;;;28.00;81.80;;;;;;4211651;28;21661;-64
2022/01/27 04:56:13;;;;;;;16.75;12.90;;;28.10;81.50;;;;;;4211734;28;20040;-64
2022/01/27 04:58:26;;;;;;;16.65;12.38;;;28.10;81.60;;;;;;4211345;28;20383;-64
2022/01/27 05:00:31;;;;;;;17.85;11.80;;;28.10;81.60;;;;;;4213494;28;20511;-64
2022/01/27 05:02:45;;;;;;;18.73;12.23;;;28.10;81.30;;;;;;4211067;28;20498;-64
2022/01/27 05:04:54;;;;;;;17.08;11.88;;;28.20;80.80;;;;;;4212961;28;20040;-64
2022/01/27 05:07:19;;;;;;;18.27;11.02;;;28.20;80.30;;;;;;4211731;28;20115;-64
2022/01/27 05:09:24;;;;;;;17.30;12.25;;;28.30;78.70;;;;;;4213165;28;20071;-64
2022/01/27 05:14:08;;;;;;;17.33;12.93;;;28.40;78.30;;;;;;4213265;28;20036;-64
2022/01/27 05:16:13;;;;;;;17.70;12.18;;;28.30;79.20;;;;;;4205904;28;20444;-64
2022/01/27 05:18:17;;;;;;;16.65;12.40;;;28.50;79.20;;;;;;4195071;28;20048;-65
2022/01/27 05:20:22;;;;;;;16.40;12.45;;;28.50;79.20;;;;;;4210249;28;20051;-65
2022/01/27 05:22:26;;;;;;;16.67;11.82;;;28.50;78.50;;;;;;4209713;28;20524;-65
2022/01/27 05:24:31;;;;;;;17.38;12.90;;;28.60;78.50;;;;;;4209940;28;20036;-65
2022/01/27 05:26:38;;;;;;;19.98;12.65;;;28.60;79.00;;;;;;4211193;28;20040;-65
2022/01/27 05:28:43;;;;;;;17.02;12.55;;;28.70;79.50;;;;;;4210340;28;20047;-65
2022/01/27 05:30:47;;;;;;;17.77;12.38;;;28.70;79.50;;;;;;4210071;28;20059;-65
2022/01/27 05:32:52;;;;;;;20.02;12.05;;;28.80;78.80;;;;;;4193321;28;20426;-65
2022/01/27 05:34:56;;;;;;;18.15;12.10;;;28.80;79.30;;;;;;4210498;28;20093;-65
2022/01/27 05:37:01;;;;;;;17.45;12.00;;;28.90;79.50;;;;;;4209252;28;20060;-64
2022/01/27 05:39:05;;;;;;;17.00;11.20;;;28.90;79.20;;;;;;4209642;28;20736;-64
2022/01/27 05:41:13;;;;;;;16.85;12.23;;;29.00;78.40;;;;;;4209782;28;20410;-64
2022/01/27 05:43:17;;;;;;;18.48;11.85;;;29.00;78.60;;;;;;4209651;28;20506;-64
2022/01/27 05:45:22;;;;;;;12.13;10.68;;;29.00;78.30;;;;;;4208986;28;20051;-65
2022/01/27 05:47:26;;;;;;;16.23;11.70;;;29.10;78.20;;;;;;4192259;28;20566;-64
2022/01/27 05:49:31;;;;;;;15.13;11.57;;;29.10;78.10;;;;;;4210107;28;20032;-64
2022/01/27 05:51:35;;;;;;;14.40;11.18;;;29.10;78.20;;;;;;4208965;28;20040;-65
2022/01/27 05:53:40;;;;;;;13.77;10.48;;;29.20;78.00;;;;;;4209741;28;20068;-64
2022/01/27 05:55:46;;;;;;;11.98;9.60;;;29.20;76.80;;;;;;4210490;28;20046;-64
2022/01/27 05:57:50;;;;;;;13.95;9.65;;;29.40;75.50;;;;;;4210426;28;20040;-64
2022/01/27 05:59:55;;;;;;;12.27;9.75;;;29.60;75.00;;;;;;4209100;28;20110;-65
2022/01/27 06:01:59;;;;;;;14.32;9.43;;;29.50;74.40;;;;;;4206938;28;20728;-66
2022/01/27 06:04:22;;;;;;;13.50;9.50;;;29.50;74.60;;;;;;4207994;28;20599;-65
2022/01/27 06:06:45;;;;;;;11.55;9.20;;;29.50;75.10;;;;;;4203413;28;20050;-65
2022/01/27 06:09:09;;;;;;;12.82;9.55;;;29.60;75.40;;;;;;4202370;28;20040;-65
2022/01/27 06:11:34;;;;;;;13.52;9.23;;;29.60;74.70;;;;;;4201914;28;20066;-65
2022/01/27 06:13:59;;;;;;;13.05;8.98;;;29.70;74.30;;;;;;4200547;28;20071;-65
2022/01/27 06:16:24;;;;;;;21.58;9.00;;;29.70;74.10;;;;;;4201777;28;20036;-65
2022/01/27 06:18:48;;;;;;;12.30;8.60;;;29.70;73.20;;;;;;4203723;28;20040;-65
2022/01/27 06:21:14;;;;;;;13.13;8.55;;;29.70;72.70;;;;;;4203707;28;20052;-65
2022/01/27 06:23:38;;;;;;;9.20;7.63;;;29.70;72.30;;;;;;4204436;28;20615;-66
2022/01/27 06:26:03;;;;;;;11.32;7.75;;;29.70;71.40;;;;;;4203833;28;20124;-65
2022/01/27 06:28:30;;;;;;;10.90;7.75;;;29.70;71.10;;;;;;4187704;28;20080;-64
2022/01/27 06:30:54;;;;;;;10.85;7.68;;;29.70;70.50;;;;;;4203374;28;20456;-65
2022/01/27 06:33:19;;;;;;;8.95;7.20;;;29.80;69.40;;;;;;4201207;28;20048;-66
2022/01/27 06:35:43;;;;;;;10.48;7.20;;;29.90;69.00;;;;;;4203642;28;20063;-65
2022/01/27 06:38:08;;;;;;;9.98;7.82;;;29.90;68.40;;;;;;4202502;28;20129;-65
2022/01/27 06:40:33;;;;;;;10.40;6.97;;;30.00;68.10;;;;;;4204933;28;20097;-64
2022/01/27 06:42:57;;;;;;;9.82;6.90;;;30.00;67.20;;;;;;4206564;28;20055;-64
2022/01/27 06:45:21;;;;;;;12.30;6.47;;;30.00;66.00;;;;;;4205593;28;20056;-65
2022/01/27 06:47:46;;;;;;;9.23;6.50;;;29.90;65.50;;;;;;4208814;28;20498;-66
2022/01/27 06:50:10;;;;;;;92.03;11.30;;;30.00;65.20;;;;;;4206382;28;20051;-66
2022/01/27 06:52:35;;;;;;;51.30;9.52;;;30.00;65.30;;;;;;4206407;28;20123;-65
2022/01/27 06:55:01;;;;;;;315.45;23.67;;;30.00;65.90;;;;;;4205555;28;20856;-65
2022/01/27 06:57:33;;;;;;;44.53;9.90;;;30.00;65.60;;;;;;4207372;28;20121;-66
2022/01/27 06:59:58;;;;;;;149.60;17.83;;;30.00;64.90;;;;;;4207366;28;20052;-66
2022/01/27 07:02:23;;;;;;;22.13;7.38;;;30.10;65.20;;;;;;4206421;28;20052;-64
2022/01/27 07:04:47;;;;;;;22.38;7.82;;;30.10;64.80;;;;;;4206463;28;20067;-66
2022/01/27 07:07:13;;;;;;;77.82;11.32;;;30.10;65.10;;;;;;4205161;28;20500;-64
2022/01/27 07:09:37;;;;;;;50.70;8.68;;;30.20;65.10;;;;;;4206171;28;20414;-66
2022/01/27 07:12:02;;;;;;;15.57;7.45;;;30.20;65.30;;;;;;4204913;28;20031;-63
2022/01/27 07:14:26;;;;;;;14.88;7.65;;;30.20;64.20;;;;;;4208524;27;20418;-63
2022/01/27 07:16:51;;;;;;;16.50;9.80;;;30.20;63.50;;;;;;4204289;28;20036;-67
2022/01/27 07:19:15;;;;;;;32.50;8.90;;;30.30;62.80;;;;;;4205316;28;20067;-65
2022/01/27 07:21:40;;;;;;;17.70;9.18;;;30.20;61.60;;;;;;4205024;28;20056;-66
2022/01/27 07:24:05;;;;;;;24.25;10.45;;;30.20;60.50;;;;;;4208091;28;20051;-66
2022/01/27 07:26:29;;;;;;;24.20;9.50;;;30.20;60.80;;;;;;4205562;28;20059;-67
2022/01/27 07:28:54;;;;;;;14.95;7.75;;;30.20;61.60;;;;;;4209055;28;20083;-66
2022/01/27 07:31:19;;;;;;;10.77;7.47;;;30.20;61.20;;;;;;4205614;28;20046;-67
2022/01/27 07:33:43;;;;;;;9.52;7.57;;;30.20;61.60;;;;;;4207210;28;20036;-66
2022/01/27 07:36:08;;;;;;;11.90;7.32;;;30.30;62.10;;;;;;4206581;28;20495;-66
2022/01/27 07:38:33;;;;;;;12.07;7.20;;;30.20;61.30;;;;;;4205814;28;20072;-66
2022/01/27 07:40:57;;;;;;;10.88;7.35;;;30.30;61.70;;;;;;4203369;28;20075;-65
2022/01/27 07:43:21;;;;;;;11.20;7.07;;;30.30;62.00;;;;;;4190990;28;20127;-66
2022/01/27 07:45:46;;;;;;;9.63;6.00;;;30.30;61.30;;;;;;4205328;28;20074;-63
2022/01/27 07:48:11;;;;;;;10.07;6.72;;;30.40;60.00;;;;;;4205694;28;20051;-66
2022/01/27 07:50:35;;;;;;;10.50;7.95;;;30.40;61.90;;;;;;4206038;28;20040;-63
2022/01/27 07:53:00;;;;;;;21.83;7.63;;;30.40;62.70;;;;;;4205175;28;20132;-64
2022/01/27 07:55:24;;;;;;;20.15;8.48;;;30.50;63.10;;;;;;4203816;28;20109;-64
2022/01/27 07:57:49;;;;;;;14.57;7.28;;;30.50;63.50;;;;;;4205215;28;20045;-65
2022/01/27 08:00:15;;;;;;;10.35;7.15;;;30.50;63.60;;;;;;4205290;28;20056;-65
2022/01/27 08:02:39;;;;;;;10.20;7.60;;;30.50;63.70;;;;;;4213462;28;20078;-65
2022/01/27 08:04:53;;;;;;;11.65;7.38;;;30.40;63.70;;;;;;4210252;28;20040;-65
2022/01/27 08:07:03;;;;;;;13.60;7.43;;;30.30;64.90;;;;;;4196598;28;20051;-65
2022/01/27 08:09:27;;;;;;;8.50;6.72;;;30.30;63.30;;;;;;4201040;28;20056;-65
2022/01/27 08:11:51;;;;;;;16.63;7.43;;;30.20;62.30;;;;;;4203954;28;20097;-65
2022/01/27 08:14:16;;;;;;;23.45;7.65;;;30.20;62.50;;;;;;4211333;28;20402;-64
2022/01/27 08:16:40;;;;;;;16.83;7.35;;;30.10;63.00;;;;;;4218604;28;20376;-64
2022/01/27 08:19:04;;;;;;;12.13;6.68;;;30.10;63.30;;;;;;4205807;28;20547;-64
2022/01/27 08:21:08;;;;;;;12.50;7.28;;;30.10;63.80;;;;;;4225289;28;20032;-64
2022/01/27 08:23:31;;;;;;;11.02;7.90;;;30.10;64.00;;;;;;4215828;28;20062;-64
2022/01/27 08:26:03;;;;;;;9.43;7.30;;;30.10;64.20;;;;;;4201169;28;20051;-64
2022/01/27 08:28:19;;;;;;;12.27;7.97;;;30.20;64.40;;;;;;4207897;28;20048;-64
2022/01/27 08:30:28;;;;;;;12.45;7.85;;;30.10;64.50;;;;;;4219183;28;20040;-64
2022/01/27 08:35:15;;;;;;;13.18;7.78;;;30.10;65.60;;;;;;4221549;28;20489;-64
2022/01/27 08:37:24;;;;;;;11.02;7.78;;;30.10;65.80;;;;;;4222775;28;20048;-64
2022/01/27 08:39:30;;;;;;;8.98;7.15;;;30.20;65.80;;;;;;4221991;28;20480;-64
2022/01/27 08:41:35;;;;;;;12.93;7.60;;;30.20;65.20;;;;;;4223526;28;20059;-63
2022/01/27 08:43:40;;;;;;;15.82;8.15;;;30.20;64.70;;;;;;4205771;28;20045;-64
2022/01/27 08:45:46;;;;;;;9.75;7.47;;;30.20;65.30;;;;;;4215622;28;20530;-64
2022/01/27 08:47:51;;;;;;;12.50;7.40;;;30.30;65.60;;;;;;4221172;28;20039;-64
2022/01/27 08:49:56;;;;;;;11.27;7.68;;;30.20;65.00;;;;;;4219976;28;20076;-63
2022/01/27 08:52:02;;;;;;;9.07;7.20;;;30.20;64.50;;;;;;4214746;28;20098;-64
2022/01/27 08:54:07;;;;;;;12.25;7.53;;;30.20;62.60;;;;;;4213519;28;20077;-64
2022/01/27 08:56:13;;;;;;;12.60;7.55;;;30.20;63.40;;;;;;4195134;28;20040;-66
2022/01/27 08:58:17;;;;;;;11.85;7.88;;;30.20;64.00;;;;;;4213836;28;20048;-64
2022/01/27 09:00:22;;;;;;;11.18;7.45;;;30.20;64.60;;;;;;4209459;28;20048;-63
2022/01/27 09:02:47;;;;;;;10.02;7.10;;;30.20;64.80;;;;;;4214651;28;20125;-63
2022/01/27 09:04:53;;;;;;;9.57;6.50;;;30.20;64.80;;;;;;4216446;28;20541;-63
2022/01/27 09:06:57;;;;;;;7.80;5.85;;;30.20;64.20;;;;;;4211645;28;20067;-64
2022/01/27 09:09:02;;;;;;;7.93;6.10;;;30.20;62.90;;;;;;4220595;28;20050;-63
2022/01/27 09:11:06;;;;;;;10.48;5.97;;;30.10;62.40;;;;;;4221092;28;20359;-63
2022/01/27 09:13:12;;;;;;;10.23;6.38;;;30.10;62.40;;;;;;4222647;28;20437;-64
2022/01/27 09:15:16;;;;;;;8.43;6.60;;;30.10;62.40;;;;;;4206164;28;20052;-63
2022/01/27 09:17:25;;;;;;;7.78;6.40;;;30.10;62.10;;;;;;4214627;28;20048;-65
2022/01/27 09:19:31;;;;;;;8.77;6.57;;;30.10;62.40;;;;;;4214015;28;20040;-64
2022/01/27 09:21:45;;;;;;;8.70;6.45;;;30.10;62.40;;;;;;4215063;28;20036;-64
2022/01/27 09:23:50;;;;;;;12.60;6.28;;;30.10;61.50;;;;;;4214553;28;20035;-64
2022/01/27 09:26:01;;;;;;;8.68;5.75;;;30.10;61.00;;;;;;4216051;28;20032;-64
2022/01/27 09:28:07;;;;;;;9.50;6.20;;;30.10;60.70;;;;;;4221219;28;20040;-65
2022/01/27 09:30:14;;;;;;;11.05;6.63;;;30.10;61.50;;;;;;4229379;28;20494;-63
2022/01/27 09:32:18;;;;;;;10.00;6.03;;;30.10;62.40;;;;;;4229571;28;20044;-64
2022/01/27 09:34:23;;;;;;;11.30;7.00;;;30.10;62.90;;;;;;4214075;28;20490;-64
2022/01/27 09:36:27;;;;;;;9.60;7.30;;;30.00;63.20;;;;;;4220610;28;20047;-62
2022/01/27 09:38:32;;;;;;;8.80;6.53;;;30.00;64.00;;;;;;4212985;28;20043;-64
2022/01/27 09:40:38;;;;;;;10.43;7.78;;;30.00;63.60;;;;;;4211218;28;20048;-64
2022/01/27 09:42:49;;;;;;;9.05;7.10;;;30.00;63.60;;;;;;4223059;28;20056;-64
2022/01/27 09:44:53;;;;;;;10.48;6.35;;;30.00;63.80;;;;;;4211259;28;20056;-64
2022/01/27 09:47:03;;;;;;;9.05;5.80;;;30.00;63.80;;;;;;4208442;28;20054;-64
2022/01/27 09:49:18;;;;;;;8.93;5.60;;;30.00;63.40;;;;;;4212923;28;20085;-64
2022/01/27 09:51:39;;;;;;;7.35;5.53;;;29.90;63.00;;;;;;4212524;28;20048;-64
2022/01/27 09:53:44;;;;;;;8.18;5.45;;;29.90;62.80;;;;;;4215836;28;20125;-64
2022/01/27 09:55:48;;;;;;;8.30;5.43;;;29.90;62.80;;;;;;4220245;28;20467;-65
2022/01/27 09:57:54;;;;;;;7.32;4.60;;;29.80;62.90;;;;;;4211207;28;20036;-65
2022/01/27 09:59:59;;;;;;;7.07;5.47;;;29.90;63.10;;;;;;4228750;28;20397;-66
2022/01/27 10:02:06;;;;;;;7.28;5.50;;;29.80;63.70;;;;;;4227342;28;20089;-64
2022/01/27 10:04:11;;;;;;;8.43;5.50;;;29.90;63.80;;;;;;4215645;28;20681;-64
2022/01/27 10:06:18;;;;;;;10.05;5.88;;;29.80;63.50;;;;;;4217610;28;20035;-63
2022/01/27 10:08:22;;;;;;;7.65;5.55;;;29.80;63.60;;;;;;4212098;28;20089;-65
2022/01/27 10:10:26;;;;;;;9.02;5.60;;;29.80;63.40;;;;;;4212238;28;20056;-64
2022/01/27 10:12:35;;;;;;;9.45;5.65;;;29.70;63.20;;;;;;4212059;28;20036;-65
2022/01/27 10:14:39;;;;;;;9.35;5.78;;;29.80;63.60;;;;;;4217498;28;20051;-60
2022/01/27 10:16:44;;;;;;;10.20;5.88;;;29.70;63.70;;;;;;4213740;28;20067;-62
2022/01/27 10:18:49;;;;;;;9.52;6.05;;;29.70;63.70;;;;;;4213756;28;20054;-64
2022/01/27 10:21:05;;;;;;;7.30;5.50;;;29.70;63.80;;;;;;4198442;28;20082;-63
2022/01/27 10:23:33;;;;;;;11.60;6.00;;;29.70;63.90;;;;;;4195465;28;20045;-65
2022/01/27 10:25:55;;;;;;;12.15;6.18;;;29.70;64.20;;;;;;4200198;28;20044;-66
2022/01/27 10:28:09;;;;;;;11.00;5.95;;;29.60;64.80;;;;;;4213135;28;20040;-63
2022/01/27 10:32:44;;;;;;;19.00;12.30;;;29.60;66.70;;;;;;4211489;28;20139;-64
2022/01/27 10:35:02;;;;;;;14.38;9.68;;;29.50;68.30;;;;;;4200096;28;20045;-63
2022/01/27 10:37:06;;;;;;;20.10;11.10;;;29.50;68.10;;;;;;4212659;28;20032;-65
2022/01/27 10:39:12;;;;;;;19.08;9.77;;;29.50;68.30;;;;;;4225813;28;20108;-64
2022/01/27 10:41:17;;;;;;;19.42;10.50;;;29.40;69.40;;;;;;4219869;28;20052;-64
2022/01/27 10:43:23;;;;;;;16.45;11.40;;;29.40;69.90;;;;;;4223233;28;20109;-64
2022/01/27 10:45:28;;;;;;;15.95;9.80;;;29.40;69.80;;;;;;4210143;28;20052;-65
2022/01/27 10:47:38;;;;;;;18.83;10.55;;;29.30;70.40;;;;;;4225435;28;20047;-64
2022/01/27 10:49:47;;;;;;;15.05;10.85;;;29.30;70.80;;;;;;4221668;28;20052;-64
2022/01/27 10:51:54;;;;;;;20.15;10.48;;;29.30;70.90;;;;;;4223860;28;20051;-68
2022/01/27 10:54:18;;;;;;;23.10;13.60;;;29.20;70.90;;;;;;4204595;28;20071;-63
2022/01/27 10:56:25;;;;;;;26.65;14.93;;;29.20;71.50;;;;;;4219408;28;20109;-63
2022/01/27 10:58:29;;;;;;;27.80;14.25;;;29.10;71.90;;;;;;4227068;28;20058;-64
2022/01/27 11:00:36;;;;;;;21.55;12.77;;;29.10;72.20;;;;;;4195401;28;20143;-62
2022/01/27 11:02:58;;;;;;;22.75;12.23;;;29.00;71.90;;;;;;4218421;28;20048;-63
2022/01/27 11:05:03;;;;;;;15.55;10.82;;;28.90;71.30;;;;;;4215474;28;20047;-62
2022/01/27 11:07:10;;;;;;;18.70;10.32;;;28.90;71.50;;;;;;4196124;28;20048;-62
2022/01/27 11:09:15;;;;;;;15.52;9.48;;;28.80;71.10;;;;;;4204635;28;20094;-64
2022/01/27 11:11:19;;;;;;;34.67;12.65;;;28.80;71.30;;;;;;4215819;28;20120;-64
2022/01/27 11:13:24;;;;;;;25.38;9.80;;;28.80;71.40;;;;;;4216548;28;20098;-63
2022/01/27 11:15:29;;;;;;;23.08;9.95;;;28.70;71.40;;;;;;4218812;28;20116;-63
2022/01/27 11:17:36;;;;;;;19.83;10.32;;;28.70;71.80;;;;;;4221794;28;20680;-63
2022/01/27 11:20:18;;;;;;;26.13;10.30;;;28.60;72.00;;;;;;4218487;28;20044;-63
2022/01/27 11:22:47;;;;;;;29.70;12.38;;;28.60;72.40;;;;;;4213345;28;20055;-62
2022/01/27 11:25:19;;;;;;;44.33;16.60;;;28.60;72.60;;;;;;4215984;28;20087;-63
2022/01/27 11:27:33;;;;;;;39.35;16.40;;;28.60;72.70;;;;;;4206725;28;20481;-63
2022/01/27 11:29:40;;;;;;;30.35;15.60;;;28.60;73.10;;;;;;4207420;28;20048;-63
2022/01/27 11:32:01;;;;;;;45.00;21.30;;;28.50;73.50;;;;;;4224625;28;20169;-64
2022/01/27 11:34:24;;;;;;;70.30;24.63;;;28.50;73.70;;;;;;4207811;28;20059;-62
2022/01/27 11:37:01;;;;;;;54.08;22.67;;;28.50;74.40;;;;;;4212273;28;20101;-63
2022/01/27 11:39:24;;;;;;;78.57;23.13;;;28.50;74.90;;;;;;4204429;28;20161;-63
2022/01/27 11:41:50;;;;;;;49.40;20.77;;;28.40;74.90;;;;;;4202538;28;20054;-63
2022/01/27 11:44:28;;;;;;;50.80;21.13;;;28.20;75.40;;;;;;4220353;28;20102;-64
2022/01/27 11:47:24;;;;;;;43.40;21.00;;;28.10;75.70;;;;;;4218164;28;20055;-63